Aeroporto :
LOGIN :

Iscrizione | Disclaimer

   EN    FR    IT 

 










Sommario :    VFR   VFR Marginale   IFR   IFR Intensivo   IFR Molto Intensivo
Visibilità : 
Base nubi : 
>= 8 km
>= 3000ft
5 / 8 km
1000 / 3000 ft
1500m / 5 km
500 / 1000 ft
800 / 1500m
200 / 500 ft
< 800m
< 200 ft
Simboli :   Temporali  Nebbia  Neve Forte  Precipitazioni Forti  Vento > 20 kt
SIGMETs :   Varie  Temporali  Ghiacco  Turbolenza  Onda orograficha  Ceneri Vulcaniche







- Altitudine del aeroporto : 249 ft
- Codice IATA : QZD


LHUD - Szeged Glider

ULTIMO METAR :
  • 181815Z 36004KT CAVOK 05/M01 Q1019

METARs OBSOLETI :
  • 181745Z 36003KT CAVOK 05/M02 Q1019
  • 181715Z 35005KT CAVOK 05/M02 Q1020
  • 181645Z 34004KT CAVOK 05/M02 Q1020
  • 181615Z 34004KT CAVOK 05/M02 Q1021
  • 181545Z 36003KT CAVOK 05/M02 Q1021

TAF N/A
Nessun NOTAM noto per questo aeroporto.
1 SIGMET conosciuto per la FIR Budapest (LHCC) :
 
Forte formazione di ghiaccio
LHCC SIGMET 02 VALID 181830/182230 LHBP
LHCC BUDAPEST FIR SEV ICE FCST S OF LINE N4635 E01638 - N4708 E01813 - N4611 E02112 3000/6000FT STNR NC=



MetMap, La meteo Aeronautica in un colpo d'occhio ! - Copyright ORBIFLY Dicembre 2007 - Disclaimer

ORBIFLY MET'MAP TEAM :

Programmazione e sviluppo : Alexandra Zaïnal
Concezione e sviluppo : Baudouin d'Aumeries
Co-Programmazione e sviluppo : Marc-Olivier Méhu
Supporto tecnico e logistico : Manuel Goepfert
Aiuto per la traduzione : Arnaldo La Scala

Contatto : metmap@orbifly.com




FONTI E CREDITI :

   NOAA